sensor_id;sensor_type;location;lat;lon;timestamp;pressure;altitude;pressure_sealevel;temperature
67509;BMP280;54354;44.724;11.284;2023-03-25T00:00:19;101232.56;;;19.60
67509;BMP280;54354;44.724;11.284;2023-03-25T00:02:50;101232.19;;;19.52
67509;BMP280;54354;44.724;11.284;2023-03-25T00:05:18;101222.19;;;19.53
67509;BMP280;54354;44.724;11.284;2023-03-25T00:07:46;101220.97;;;19.54
67509;BMP280;54354;44.724;11.284;2023-03-25T00:10:13;101219.91;;;19.51
67509;BMP280;54354;44.724;11.284;2023-03-25T00:12:38;101206.97;;;19.50
67509;BMP280;54354;44.724;11.284;2023-03-25T00:15:09;101201.78;;;19.46
67509;BMP280;54354;44.724;11.284;2023-03-25T00:17:35;101209.94;;;19.52
67509;BMP280;54354;44.724;11.284;2023-03-25T00:20:04;101211.59;;;19.49
67509;BMP280;54354;44.724;11.284;2023-03-25T00:22:33;101216.53;;;19.51
67509;BMP280;54354;44.724;11.284;2023-03-25T00:25:00;101212.53;;;19.46
67509;BMP280;54354;44.724;11.284;2023-03-25T00:27:26;101214.91;;;19.44
67509;BMP280;54354;44.724;11.284;2023-03-25T00:29:51;101206.84;;;19.44
67509;BMP280;54354;44.724;11.284;2023-03-25T00:32:17;101198.50;;;19.42
67509;BMP280;54354;44.724;11.284;2023-03-25T00:34:45;101188.97;;;19.41
67509;BMP280;54354;44.724;11.284;2023-03-25T00:37:14;101193.78;;;19.37
67509;BMP280;54354;44.724;11.284;2023-03-25T00:39:46;101192.72;;;19.35
67509;BMP280;54354;44.724;11.284;2023-03-25T00:42:15;101194.28;;;19.26
67509;BMP280;54354;44.724;11.284;2023-03-25T00:44:40;101192.31;;;19.27
67509;BMP280;54354;44.724;11.284;2023-03-25T00:47:06;101193.97;;;19.24
67509;BMP280;54354;44.724;11.284;2023-03-25T00:49:31;101196.81;;;19.21
67509;BMP280;54354;44.724;11.284;2023-03-25T00:51:57;101191.16;;;19.19
67509;BMP280;54354;44.724;11.284;2023-03-25T00:54:23;101182.09;;;19.16
67509;BMP280;54354;44.724;11.284;2023-03-25T00:56:49;101174.19;;;19.13
67509;BMP280;54354;44.724;11.284;2023-03-25T00:59:16;101179.56;;;19.13
67509;BMP280;54354;44.724;11.284;2023-03-25T01:01:41;101175.69;;;19.14
67509;BMP280;54354;44.724;11.284;2023-03-25T01:04:07;101162.44;;;19.10
67509;BMP280;54354;44.724;11.284;2023-03-25T01:06:38;101156.47;;;19.06
67509;BMP280;54354;44.724;11.284;2023-03-25T01:09:10;101150.22;;;19.09
67509;BMP280;54354;44.724;11.284;2023-03-25T01:11:39;101146.03;;;19.08
67509;BMP280;54354;44.724;11.284;2023-03-25T01:14:10;101155.16;;;19.02
67509;BMP280;54354;44.724;11.284;2023-03-25T01:16:36;101159.31;;;19.03
67509;BMP280;54354;44.724;11.284;2023-03-25T01:19:02;101158.31;;;19.00
67509;BMP280;54354;44.724;11.284;2023-03-25T01:21:28;101162.94;;;18.99
67509;BMP280;54354;44.724;11.284;2023-03-25T01:23:53;101155.06;;;18.96
67509;BMP280;54354;44.724;11.284;2023-03-25T01:26:19;101151.31;;;18.93
67509;BMP280;54354;44.724;11.284;2023-03-25T01:28:44;101143.88;;;18.88
67509;BMP280;54354;44.724;11.284;2023-03-25T01:31:12;101142.28;;;18.82
67509;BMP280;54354;44.724;11.284;2023-03-25T01:33:38;101136.91;;;18.82
67509;BMP280;54354;44.724;11.284;2023-03-25T01:36:05;101129.28;;;18.80
67509;BMP280;54354;44.724;11.284;2023-03-25T01:38:38;101122.94;;;18.78
67509;BMP280;54354;44.724;11.284;2023-03-25T01:41:04;101123.69;;;18.78
67509;BMP280;54354;44.724;11.284;2023-03-25T01:43:31;101122.16;;;18.77
67509;BMP280;54354;44.724;11.284;2023-03-25T01:45:57;101105.31;;;18.77
67509;BMP280;54354;44.724;11.284;2023-03-25T01:48:35;101110.13;;;18.73
67509;BMP280;54354;44.724;11.284;2023-03-25T01:51:09;101101.59;;;18.74
67509;BMP280;54354;44.724;11.284;2023-03-25T01:53:37;101097.00;;;18.75
67509;BMP280;54354;44.724;11.284;2023-03-25T01:56:04;101094.03;;;18.73
67509;BMP280;54354;44.724;11.284;2023-03-25T01:58:32;101091.78;;;18.71
67509;BMP280;54354;44.724;11.284;2023-03-25T02:01:00;101090.59;;;18.72
67509;BMP280;54354;44.724;11.284;2023-03-25T02:03:27;101079.88;;;18.72
67509;BMP280;54354;44.724;11.284;2023-03-25T02:06:09;101086.72;;;18.73
67509;BMP280;54354;44.724;11.284;2023-03-25T02:08:39;101083.44;;;18.69
67509;BMP280;54354;44.724;11.284;2023-03-25T02:11:07;101078.78;;;18.79
67509;BMP280;54354;44.724;11.284;2023-03-25T02:13:34;101089.22;;;18.77
67509;BMP280;54354;44.724;11.284;2023-03-25T02:16:27;101078.72;;;18.88
67509;BMP280;54354;44.724;11.284;2023-03-25T02:19:17;101077.72;;;18.85
67509;BMP280;54354;44.724;11.284;2023-03-25T02:38:50;101063.91;;;18.78
67509;BMP280;54354;44.724;11.284;2023-03-25T02:41:49;101074.28;;;18.85
67509;BMP280;54354;44.724;11.284;2023-03-25T02:44:35;101058.19;;;18.85
67509;BMP280;54354;44.724;11.284;2023-03-25T02:47:06;101059.09;;;18.82
67509;BMP280;54354;44.724;11.284;2023-03-25T02:49:44;101055.50;;;18.85
67509;BMP280;54354;44.724;11.284;2023-03-25T02:52:28;101057.25;;;18.88
67509;BMP280;54354;44.724;11.284;2023-03-25T02:54:57;101051.06;;;18.82
67509;BMP280;54354;44.724;11.284;2023-03-25T02:57:28;101049.56;;;18.81
67509;BMP280;54354;44.724;11.284;2023-03-25T02:59:56;101045.13;;;18.78
67509;BMP280;54354;44.724;11.284;2023-03-25T03:02:25;101049.63;;;18.71
67509;BMP280;54354;44.724;11.284;2023-03-25T03:04:55;101046.03;;;18.65
67509;BMP280;54354;44.724;11.284;2023-03-25T03:07:34;101054.56;;;18.64
67509;BMP280;54354;44.724;11.284;2023-03-25T03:10:43;101062.72;;;18.69
67509;BMP280;54354;44.724;11.284;2023-03-25T03:13:29;101068.47;;;18.53
67509;BMP280;54354;44.724;11.284;2023-03-25T03:16:12;101063.56;;;18.52
67509;BMP280;54354;44.724;11.284;2023-03-25T03:18:57;101072.66;;;18.54
67509;BMP280;54354;44.724;11.284;2023-03-25T03:21:46;101075.34;;;18.54
67509;BMP280;54354;44.724;11.284;2023-03-25T03:26:57;101070.56;;;18.49
67509;BMP280;54354;44.724;11.284;2023-03-25T03:34:35;101077.88;;;18.49
67509;BMP280;54354;44.724;11.284;2023-03-25T03:37:11;101078.63;;;18.49
67509;BMP280;54354;44.724;11.284;2023-03-25T03:39:37;101086.50;;;18.53
67509;BMP280;54354;44.724;11.284;2023-03-25T03:42:20;101093.38;;;18.54
67509;BMP280;54354;44.724;11.284;2023-03-25T03:45:00;101074.59;;;18.54
67509;BMP280;54354;44.724;11.284;2023-03-25T03:47:30;101085.75;;;18.52
67509;BMP280;54354;44.724;11.284;2023-03-25T03:50:05;101087.50;;;18.55
67509;BMP280;54354;44.724;11.284;2023-03-25T03:52:37;101082.16;;;18.55
67509;BMP280;54354;44.724;11.284;2023-03-25T03:55:09;101089.47;;;18.55
67509;BMP280;54354;44.724;11.284;2023-03-25T03:57:44;101089.16;;;18.53
67509;BMP280;54354;44.724;11.284;2023-03-25T04:00:14;101100.50;;;18.57
67509;BMP280;54354;44.724;11.284;2023-03-25T04:02:40;101103.19;;;18.57
67509;BMP280;54354;44.724;11.284;2023-03-25T04:05:10;101094.84;;;18.55
67509;BMP280;54354;44.724;11.284;2023-03-25T04:07:43;101094.84;;;18.55
67509;BMP280;54354;44.724;11.284;2023-03-25T04:12:42;101095.13;;;18.57
67509;BMP280;54354;44.724;11.284;2023-03-25T04:15:09;101096.56;;;18.67
67509;BMP280;54354;44.724;11.284;2023-03-25T04:17:35;101101.63;;;18.65
67509;BMP280;54354;44.724;11.284;2023-03-25T04:20:01;101106.56;;;18.66
67509;BMP280;54354;44.724;11.284;2023-03-25T04:22:33;101100.75;;;18.68
67509;BMP280;54354;44.724;11.284;2023-03-25T04:25:04;101110.91;;;18.64
67509;BMP280;54354;44.724;11.284;2023-03-25T04:27:30;101111.75;;;18.70
67509;BMP280;54354;44.724;11.284;2023-03-25T04:29:57;101106.88;;;18.68
67509;BMP280;54354;44.724;11.284;2023-03-25T04:32:26;101101.03;;;18.70
67509;BMP280;54354;44.724;11.284;2023-03-25T04:34:53;101099.53;;;18.69
67509;BMP280;54354;44.724;11.284;2023-03-25T04:37:25;101111.94;;;18.66
67509;BMP280;54354;44.724;11.284;2023-03-25T04:39:52;101118.16;;;18.73
67509;BMP280;54354;44.724;11.284;2023-03-25T04:42:24;101117.13;;;18.70
67509;BMP280;54354;44.724;11.284;2023-03-25T04:44:59;101115.03;;;18.65
67509;BMP280;54354;44.724;11.284;2023-03-25T04:47:25;101123.09;;;18.65
67509;BMP280;54354;44.724;11.284;2023-03-25T04:49:51;101128.94;;;18.63
67509;BMP280;54354;44.724;11.284;2023-03-25T04:52:16;101131.63;;;18.63
67509;BMP280;54354;44.724;11.284;2023-03-25T04:54:42;101125.50;;;18.63
67509;BMP280;54354;44.724;11.284;2023-03-25T04:57:09;101126.69;;;18.62
67509;BMP280;54354;44.724;11.284;2023-03-25T04:59:35;101129.38;;;18.62
67509;BMP280;54354;44.724;11.284;2023-03-25T05:02:01;101132.78;;;18.62
67509;BMP280;54354;44.724;11.284;2023-03-25T05:04:30;101124.00;;;18.62
67509;BMP280;54354;44.724;11.284;2023-03-25T05:06:56;101137.41;;;18.62
67509;BMP280;54354;44.724;11.284;2023-03-25T05:09:21;101142.78;;;18.62
67509;BMP280;54354;44.724;11.284;2023-03-25T05:11:48;101143.22;;;18.60
67509;BMP280;54354;44.724;11.284;2023-03-25T05:14:15;101141.91;;;18.56
67509;BMP280;54354;44.724;11.284;2023-03-25T05:16:42;101140.44;;;18.55
67509;BMP280;54354;44.724;11.284;2023-03-25T05:19:08;101138.19;;;18.53
67509;BMP280;54354;44.724;11.284;2023-03-25T05:21:36;101138.22;;;18.44
67509;BMP280;54354;44.724;11.284;2023-03-25T05:24:03;101136.72;;;18.43
67509;BMP280;54354;44.724;11.284;2023-03-25T05:26:33;101146.25;;;18.44
67509;BMP280;54354;44.724;11.284;2023-03-25T05:29:19;101142.41;;;18.45
67509;BMP280;54354;44.724;11.284;2023-03-25T05:31:45;101145.81;;;18.46
67509;BMP280;54354;44.724;11.284;2023-03-25T05:34:11;101143.56;;;18.44
67509;BMP280;54354;44.724;11.284;2023-03-25T05:36:39;101150.13;;;18.43
67509;BMP280;54354;44.724;11.284;2023-03-25T05:39:04;101152.81;;;18.43
67509;BMP280;54354;44.724;11.284;2023-03-25T05:41:31;101156.69;;;18.42
67509;BMP280;54354;44.724;11.284;2023-03-25T05:44:07;101153.00;;;18.39
67509;BMP280;54354;44.724;11.284;2023-03-25T05:46:33;101144.19;;;18.39
67509;BMP280;54354;44.724;11.284;2023-03-25T05:48:59;101155.06;;;18.35
67509;BMP280;54354;44.724;11.284;2023-03-25T05:51:29;101153.25;;;18.32
67509;BMP280;54354;44.724;11.284;2023-03-25T05:53:58;101150.91;;;18.34
67509;BMP280;54354;44.724;11.284;2023-03-25T05:56:24;101158.63;;;18.32
67509;BMP280;54354;44.724;11.284;2023-03-25T05:58:51;101156.13;;;18.29
67509;BMP280;54354;44.724;11.284;2023-03-25T06:01:18;101161.16;;;18.27
67509;BMP280;54354;44.724;11.284;2023-03-25T06:03:44;101160.56;;;18.23
67509;BMP280;54354;44.724;11.284;2023-03-25T06:06:10;101160.00;;;18.19
67509;BMP280;54354;44.724;11.284;2023-03-25T06:08:40;101161.94;;;18.18
67509;BMP280;54354;44.724;11.284;2023-03-25T06:11:06;101158.38;;;18.21
67509;BMP280;54354;44.724;11.284;2023-03-25T06:13:33;101153.28;;;18.23
67509;BMP280;54354;44.724;11.284;2023-03-25T06:16:08;101139.63;;;18.21
67509;BMP280;54354;44.724;11.284;2023-03-25T06:18:37;101145.06;;;18.27
67509;BMP280;54354;44.724;11.284;2023-03-25T06:21:03;101147.78;;;18.36
67509;BMP280;54354;44.724;11.284;2023-03-25T06:23:30;101144.78;;;18.43
67509;BMP280;54354;44.724;11.284;2023-03-25T06:25:59;101156.66;;;19.03
67509;BMP280;54354;44.724;11.284;2023-03-25T06:28:25;101144.66;;;18.80
67509;BMP280;54354;44.724;11.284;2023-03-25T06:30:50;101149.00;;;18.77
67509;BMP280;54354;44.724;11.284;2023-03-25T06:33:17;101151.22;;;18.79
67509;BMP280;54354;44.724;11.284;2023-03-25T06:35:46;101154.78;;;18.85
67509;BMP280;54354;44.724;11.284;2023-03-25T06:38:18;101152.00;;;19.03
67509;BMP280;54354;44.724;11.284;2023-03-25T06:41:01;101152.09;;;19.18
67509;BMP280;54354;44.724;11.284;2023-03-25T06:43:27;101161.13;;;19.29
67509;BMP280;54354;44.724;11.284;2023-03-25T06:46:27;101156.84;;;19.47
67509;BMP280;54354;44.724;11.284;2023-03-25T06:49:11;101166.63;;;19.59
67509;BMP280;54354;44.724;11.284;2023-03-25T06:51:37;101164.16;;;19.70
67509;BMP280;54354;44.724;11.284;2023-03-25T06:54:02;101165.13;;;19.82
67509;BMP280;54354;44.724;11.284;2023-03-25T06:56:28;101164.13;;;19.94
67509;BMP280;54354;44.724;11.284;2023-03-25T06:58:53;101168.03;;;20.08
67509;BMP280;54354;44.724;11.284;2023-03-25T07:01:19;101167.78;;;20.21
67509;BMP280;54354;44.724;11.284;2023-03-25T07:03:44;101170.91;;;20.34
67509;BMP280;54354;44.724;11.284;2023-03-25T07:06:16;101173.78;;;20.45
67509;BMP280;54354;44.724;11.284;2023-03-25T07:08:41;101179.50;;;20.67
67509;BMP280;54354;44.724;11.284;2023-03-25T07:11:07;101177.13;;;20.90
67509;BMP280;54354;44.724;11.284;2023-03-25T07:13:33;101174.28;;;21.14
67509;BMP280;54354;44.724;11.284;2023-03-25T07:15:59;101177.72;;;21.35
67509;BMP280;54354;44.724;11.284;2023-03-25T07:18:25;101174.47;;;21.51
67509;BMP280;54354;44.724;11.284;2023-03-25T07:20:51;101173.22;;;21.67
67509;BMP280;54354;44.724;11.284;2023-03-25T07:23:17;101169.13;;;21.77
67509;BMP280;54354;44.724;11.284;2023-03-25T07:25:43;101171.38;;;21.84
67509;BMP280;54354;44.724;11.284;2023-03-25T07:28:08;101167.28;;;21.88
67509;BMP280;54354;44.724;11.284;2023-03-25T07:30:40;101173.00;;;21.96
67509;BMP280;54354;44.724;11.284;2023-03-25T07:33:05;101176.50;;;22.08
67509;BMP280;54354;44.724;11.284;2023-03-25T07:35:31;101182.72;;;22.19
67509;BMP280;54354;44.724;11.284;2023-03-25T07:37:56;101180.63;;;22.29
67509;BMP280;54354;44.724;11.284;2023-03-25T07:40:22;101190.97;;;22.36
67509;BMP280;54354;44.724;11.284;2023-03-25T07:42:47;101191.28;;;22.44
67509;BMP280;54354;44.724;11.284;2023-03-25T07:45:48;101179.59;;;22.58
67509;BMP280;54354;44.724;11.284;2023-03-25T07:48:14;101182.34;;;22.69
67509;BMP280;54354;44.724;11.284;2023-03-25T07:50:41;101180.00;;;22.83
67509;BMP280;54354;44.724;11.284;2023-03-25T07:53:08;101170.50;;;22.98
67509;BMP280;54354;44.724;11.284;2023-03-25T07:55:34;101160.75;;;23.12
67509;BMP280;54354;44.724;11.284;2023-03-25T07:57:59;101162.50;;;23.26
67509;BMP280;54354;44.724;11.284;2023-03-25T08:00:28;101168.44;;;23.36
67509;BMP280;54354;44.724;11.284;2023-03-25T08:02:54;101164.00;;;23.44
67509;BMP280;54354;44.724;11.284;2023-03-25T08:05:20;101174.59;;;23.53
67509;BMP280;54354;44.724;11.284;2023-03-25T08:07:49;101165.78;;;23.58
67509;BMP280;54354;44.724;11.284;2023-03-25T08:10:16;101172.94;;;23.73
67509;BMP280;54354;44.724;11.284;2023-03-25T08:12:42;101180.31;;;23.78
67509;BMP280;54354;44.724;11.284;2023-03-25T08:15:08;101180.56;;;23.85
67509;BMP280;54354;44.724;11.284;2023-03-25T08:17:37;101183.28;;;23.91
67509;BMP280;54354;44.724;11.284;2023-03-25T08:20:03;101190.91;;;23.98
67509;BMP280;54354;44.724;11.284;2023-03-25T08:22:30;101185.47;;;24.04
67509;BMP280;54354;44.724;11.284;2023-03-25T08:24:56;101185.00;;;24.11
67509;BMP280;54354;44.724;11.284;2023-03-25T08:27:22;101182.53;;;24.18
67509;BMP280;54354;44.724;11.284;2023-03-25T08:29:48;101188.19;;;24.20
67509;BMP280;54354;44.724;11.284;2023-03-25T08:32:24;101181.31;;;24.19
67509;BMP280;54354;44.724;11.284;2023-03-25T08:34:51;101172.41;;;24.24
67509;BMP280;54354;44.724;11.284;2023-03-25T08:37:17;101171.69;;;24.18
67509;BMP280;54354;44.724;11.284;2023-03-25T08:39:42;101165.56;;;24.12
67509;BMP280;54354;44.724;11.284;2023-03-25T08:42:11;101162.38;;;24.03
67509;BMP280;54354;44.724;11.284;2023-03-25T08:44:37;101165.34;;;23.99
67509;BMP280;54354;44.724;11.284;2023-03-25T08:47:04;101166.31;;;23.96
67509;BMP280;54354;44.724;11.284;2023-03-25T08:49:30;101164.34;;;23.91
67509;BMP280;54354;44.724;11.284;2023-03-25T08:51:56;101168.03;;;23.88
67509;BMP280;54354;44.724;11.284;2023-03-25T08:54:26;101167.00;;;24.24
67509;BMP280;54354;44.724;11.284;2023-03-25T08:56:52;101170.25;;;23.95
67509;BMP280;54354;44.724;11.284;2023-03-25T08:59:17;101164.31;;;23.85
67509;BMP280;54354;44.724;11.284;2023-03-25T09:01:43;101173.19;;;23.80
67509;BMP280;54354;44.724;11.284;2023-03-25T09:04:09;101171.22;;;23.75
67509;BMP280;54354;44.724;11.284;2023-03-25T09:06:35;101179.09;;;23.73
67509;BMP280;54354;44.724;11.284;2023-03-25T09:09:02;101179.34;;;23.70
67509;BMP280;54354;44.724;11.284;2023-03-25T09:11:31;101189.88;;;23.67
67509;BMP280;54354;44.724;11.284;2023-03-25T09:13:56;101183.00;;;23.66
67509;BMP280;54354;44.724;11.284;2023-03-25T09:16:21;101189.13;;;23.67
67509;BMP280;54354;44.724;11.284;2023-03-25T09:18:47;101183.72;;;23.67
67509;BMP280;54354;44.724;11.284;2023-03-25T09:21:12;101185.69;;;23.66
67509;BMP280;54354;44.724;11.284;2023-03-25T09:23:38;101178.06;;;23.65
67509;BMP280;54354;44.724;11.284;2023-03-25T09:26:04;101178.06;;;23.65
67509;BMP280;54354;44.724;11.284;2023-03-25T09:28:30;101174.16;;;23.66
67509;BMP280;54354;44.724;11.284;2023-03-25T09:30:56;101164.81;;;23.67
67509;BMP280;54354;44.724;11.284;2023-03-25T09:33:22;101166.28;;;23.68
67509;BMP280;54354;44.724;11.284;2023-03-25T09:35:48;101171.94;;;23.70
67509;BMP280;54354;44.724;11.284;2023-03-25T09:38:14;101172.41;;;23.68
67509;BMP280;54354;44.724;11.284;2023-03-25T09:40:41;101177.34;;;23.70
67509;BMP280;54354;44.724;11.284;2023-03-25T09:45:43;101183.47;;;23.71
67509;BMP280;54354;44.724;11.284;2023-03-25T09:50:43;101180.53;;;23.74
67509;BMP280;54354;44.724;11.284;2023-03-25T09:53:28;101177.38;;;23.76
67509;BMP280;54354;44.724;11.284;2023-03-25T09:55:56;101171.94;;;23.76
67509;BMP280;54354;44.724;11.284;2023-03-25T09:58:42;101173.19;;;23.80
67509;BMP280;54354;44.724;11.284;2023-03-25T10:06:38;101169.75;;;23.80
67509;BMP280;54354;44.724;11.284;2023-03-25T10:09:16;101166.28;;;23.79
67509;BMP280;54354;44.724;11.284;2023-03-25T10:23:22;101164.31;;;23.85
67509;BMP280;54354;44.724;11.284;2023-03-25T10:26:40;101161.88;;;23.87
67509;BMP280;54354;44.724;11.284;2023-03-25T10:28:52;101150.31;;;23.92
67509;BMP280;54354;44.724;11.284;2023-03-25T10:31:23;101151.56;;;23.91
67509;BMP280;54354;44.724;11.284;2023-03-25T10:33:57;101160.16;;;23.90
67509;BMP280;54354;44.724;11.284;2023-03-25T10:36:50;101157.47;;;23.95
67509;BMP280;54354;44.724;11.284;2023-03-25T10:39:18;101150.56;;;23.94
67509;BMP280;54354;44.724;11.284;2023-03-25T10:42:00;101144.41;;;23.94
67509;BMP280;54354;44.724;11.284;2023-03-25T10:44:27;101155.72;;;23.98
67509;BMP280;54354;44.724;11.284;2023-03-25T10:47:03;101152.25;;;23.92
67509;BMP280;54354;44.724;11.284;2023-03-25T10:49:31;101150.81;;;23.96
67509;BMP280;54354;44.724;11.284;2023-03-25T10:51:58;101149.13;;;23.99
67509;BMP280;54354;44.724;11.284;2023-03-25T10:54:30;101147.59;;;23.98
67509;BMP280;54354;44.724;11.284;2023-03-25T10:57:00;101137.03;;;24.00
67509;BMP280;54354;44.724;11.284;2023-03-25T10:59:37;101145.34;;;24.47
67509;BMP280;54354;44.724;11.284;2023-03-25T11:02:19;101142.44;;;24.17
67509;BMP280;54354;44.724;11.284;2023-03-25T11:04:49;101139.25;;;24.13
67509;BMP280;54354;44.724;11.284;2023-03-25T11:07:22;101131.88;;;24.13
67509;BMP280;54354;44.724;11.284;2023-03-25T11:09:50;101132.09;;;24.15
67509;BMP280;54354;44.724;11.284;2023-03-25T11:12:20;101128.19;;;24.11
67509;BMP280;54354;44.724;11.284;2023-03-25T11:14:54;101130.38;;;24.12
67509;BMP280;54354;44.724;11.284;2023-03-25T11:17:21;101125.94;;;24.15
67509;BMP280;54354;44.724;11.284;2023-03-25T11:20:03;101132.09;;;24.15
67509;BMP280;54354;44.724;11.284;2023-03-25T11:22:36;101133.59;;;24.16
67509;BMP280;54354;44.724;11.284;2023-03-25T11:25:19;101133.31;;;24.25
67509;BMP280;54354;44.724;11.284;2023-03-25T11:27:51;101132.09;;;24.26
67509;BMP280;54354;44.724;11.284;2023-03-25T11:30:20;101125.44;;;24.27
67509;BMP280;54354;44.724;11.284;2023-03-25T11:32:59;101123.97;;;24.26
67509;BMP280;54354;44.724;11.284;2023-03-25T11:35:29;101115.31;;;24.28
67509;BMP280;54354;44.724;11.284;2023-03-25T11:37:57;101118.28;;;24.30
67509;BMP280;54354;44.724;11.284;2023-03-25T11:40:24;101116.34;;;24.31
67509;BMP280;54354;44.724;11.284;2023-03-25T11:42:53;101113.63;;;24.31
67509;BMP280;54354;44.724;11.284;2023-03-25T11:45:24;101114.13;;;24.35
67509;BMP280;54354;44.724;11.284;2023-03-25T11:47:51;101089.50;;;24.33
67509;BMP280;54354;44.724;11.284;2023-03-25T11:50:23;101094.19;;;24.32
67509;BMP280;54354;44.724;11.284;2023-03-25T11:52:55;101088.25;;;24.34
67509;BMP280;54354;44.724;11.284;2023-03-25T11:55:31;101087.78;;;24.35
67509;BMP280;54354;44.724;11.284;2023-03-25T11:57:58;101089.75;;;24.40
67509;BMP280;54354;44.724;11.284;2023-03-25T12:05:39;101075.44;;;24.40
67509;BMP280;54354;44.724;11.284;2023-03-25T12:08:15;101076.44;;;24.42
67509;BMP280;54354;44.724;11.284;2023-03-25T12:11:06;101061.13;;;24.50
67509;BMP280;54354;44.724;11.284;2023-03-25T12:16:33;101061.41;;;24.47
67509;BMP280;54354;44.724;11.284;2023-03-25T12:27:18;101044.63;;;24.60
67509;BMP280;54354;44.724;11.284;2023-03-25T12:35:47;101032.00;;;24.68
67509;BMP280;54354;44.724;11.284;2023-03-25T12:41:27;101027.84;;;24.67
67509;BMP280;54354;44.724;11.284;2023-03-25T12:49:21;101008.09;;;24.77
67509;BMP280;54354;44.724;11.284;2023-03-25T13:00:15;101003.88;;;24.82
67509;BMP280;54354;44.724;11.284;2023-03-25T13:09:24;100997.91;;;24.89
67509;BMP280;54354;44.724;11.284;2023-03-25T13:11:55;101002.13;;;24.84
67509;BMP280;54354;44.724;11.284;2023-03-25T13:14:30;101002.13;;;24.84
67509;BMP280;54354;44.724;11.284;2023-03-25T13:17:01;100992.47;;;24.89
67509;BMP280;54354;44.724;11.284;2023-03-25T13:19:30;100991.25;;;24.90
67509;BMP280;54354;44.724;11.284;2023-03-25T13:22:02;100984.81;;;24.93
67509;BMP280;54354;44.724;11.284;2023-03-25T13:24:45;100977.38;;;24.99
67509;BMP280;54354;44.724;11.284;2023-03-25T13:27:14;100987.44;;;25.04
67509;BMP280;54354;44.724;11.284;2023-03-25T13:29:43;100996.59;;;25.01
67509;BMP280;54354;44.724;11.284;2023-03-25T13:32:23;100984.00;;;25.04
67509;BMP280;54354;44.724;11.284;2023-03-25T13:34:55;100982.78;;;25.05
67509;BMP280;54354;44.724;11.284;2023-03-25T13:37:35;100985.44;;;25.10
67509;BMP280;54354;44.724;11.284;2023-03-25T13:40:45;100979.94;;;25.22
67509;BMP280;54354;44.724;11.284;2023-03-25T13:43:20;100984.22;;;25.11
67509;BMP280;54354;44.724;11.284;2023-03-25T13:46:03;100978.50;;;25.15
67509;BMP280;54354;44.724;11.284;2023-03-25T13:51:12;100975.81;;;25.15
67509;BMP280;54354;44.724;11.284;2023-03-25T13:53:57;100971.13;;;25.15
67509;BMP280;54354;44.724;11.284;2023-03-25T14:02:09;100967.41;;;25.18
67509;BMP280;54354;44.724;11.284;2023-03-25T14:15:34;100955.97;;;25.26
67509;BMP280;54354;44.724;11.284;2023-03-25T14:18:02;100947.84;;;25.26
67509;BMP280;54354;44.724;11.284;2023-03-25T14:20:32;100943.22;;;25.21
67509;BMP280;54354;44.724;11.284;2023-03-25T14:23:07;100940.00;;;25.22
67509;BMP280;54354;44.724;11.284;2023-03-25T14:25:39;100943.69;;;25.25
67509;BMP280;54354;44.724;11.284;2023-03-25T14:28:07;100944.91;;;25.24
67509;BMP280;54354;44.724;11.284;2023-03-25T14:30:36;100949.31;;;25.27
67509;BMP280;54354;44.724;11.284;2023-03-25T14:33:02;100940.47;;;25.26
67509;BMP280;54354;44.724;11.284;2023-03-25T14:43:37;100931.31;;;25.29
67509;BMP280;54354;44.724;11.284;2023-03-25T14:48:50;100917.25;;;25.31
67509;BMP280;54354;44.724;11.284;2023-03-25T14:54:15;100918.50;;;25.30
67509;BMP280;54354;44.724;11.284;2023-03-25T14:56:52;100920.69;;;25.31
67509;BMP280;54354;44.724;11.284;2023-03-25T14:59:22;100917.50;;;25.33
67509;BMP280;54354;44.724;11.284;2023-03-25T15:01:50;100920.91;;;25.33
67509;BMP280;54354;44.724;11.284;2023-03-25T15:04:52;100921.84;;;25.41
67509;BMP280;54354;44.724;11.284;2023-03-25T15:07:38;100911.78;;;25.36
67509;BMP280;54354;44.724;11.284;2023-03-25T15:10:06;100899.47;;;25.35
67509;BMP280;54354;44.724;11.284;2023-03-25T15:12:36;100910.34;;;25.30
67509;BMP280;54354;44.724;11.284;2023-03-25T15:15:23;100908.38;;;25.30
67509;BMP280;54354;44.724;11.284;2023-03-25T15:17:49;100914.50;;;25.36
67509;BMP280;54354;44.724;11.284;2023-03-25T15:22:40;100906.66;;;25.33
67509;BMP280;54354;44.724;11.284;2023-03-25T15:25:15;100909.63;;;25.29
67509;BMP280;54354;44.724;11.284;2023-03-25T15:34:05;100900.41;;;25.38
67509;BMP280;54354;44.724;11.284;2023-03-25T15:36:43;100909.63;;;25.29
67509;BMP280;54354;44.724;11.284;2023-03-25T15:39:50;100907.06;;;25.37
67509;BMP280;54354;44.724;11.284;2023-03-25T15:43:08;100910.88;;;25.28
67509;BMP280;54354;44.724;11.284;2023-03-25T15:45:18;100911.34;;;25.32
67509;BMP280;54354;44.724;11.284;2023-03-25T15:56:11;100908.81;;;25.34
67509;BMP280;54354;44.724;11.284;2023-03-25T15:59:05;100911.25;;;25.38
67509;BMP280;54354;44.724;11.284;2023-03-25T16:01:33;100908.34;;;25.36
67509;BMP280;54354;44.724;11.284;2023-03-25T16:04:11;100907.34;;;25.33
67509;BMP280;54354;44.724;11.284;2023-03-25T16:06:43;100901.22;;;25.33
67509;BMP280;54354;44.724;11.284;2023-03-25T16:09:16;100905.66;;;25.30
67509;BMP280;54354;44.724;11.284;2023-03-25T16:11:44;100909.41;;;25.27
67509;BMP280;54354;44.724;11.284;2023-03-25T16:16:44;100907.03;;;25.18
67509;BMP280;54354;44.724;11.284;2023-03-25T16:19:19;100908.25;;;25.17
67509;BMP280;54354;44.724;11.284;2023-03-25T16:21:51;100907.53;;;25.16
67509;BMP280;54354;44.724;11.284;2023-03-25T16:24:19;100906.56;;;25.14
67509;BMP280;54354;44.724;11.284;2023-03-25T16:26:47;100904.63;;;25.58
67509;BMP280;54354;44.724;11.284;2023-03-25T16:31:56;100918.41;;;25.11
67509;BMP280;54354;44.724;11.284;2023-03-25T16:34:22;100912.53;;;25.07